createdAt,value
2022-11-19T00:00:25.010Z,0.00
2022-11-19T00:05:24.934Z,0.00
2022-11-19T00:10:24.866Z,0.00
2022-11-19T00:15:24.816Z,0.00
2022-11-19T00:20:24.755Z,0.00
2022-11-19T00:25:24.661Z,0.00
2022-11-19T00:30:46.950Z,0.00
2022-11-19T00:35:25.544Z,0.00
2022-11-19T00:40:24.464Z,0.00
2022-11-19T00:45:24.407Z,0.00
2022-11-19T00:50:24.359Z,0.00
2022-11-19T00:55:24.239Z,0.00
2022-11-19T01:00:24.212Z,0.00
2022-11-19T01:05:44.380Z,0.00
2022-11-19T01:10:36.631Z,0.00
2022-11-19T01:15:36.611Z,0.00
2022-11-19T01:20:36.568Z,0.00
2022-11-19T01:25:36.472Z,0.00
2022-11-19T01:30:36.372Z,0.00
2022-11-19T01:35:36.328Z,0.00
2022-11-19T01:40:36.277Z,0.00
2022-11-19T01:45:36.223Z,0.00
2022-11-19T01:50:36.119Z,0.00
2022-11-19T01:55:36.063Z,0.00
2022-11-19T02:00:36.021Z,0.00
2022-11-19T02:05:36.058Z,0.00
2022-11-19T02:10:35.852Z,0.00
2022-11-19T02:15:35.855Z,0.00
2022-11-19T02:20:35.732Z,0.00
2022-11-19T02:25:35.663Z,0.00
2022-11-19T02:30:35.591Z,0.00
2022-11-19T02:35:35.554Z,0.00
2022-11-19T02:40:35.436Z,0.00
2022-11-19T02:45:35.417Z,0.00
2022-11-19T02:50:35.323Z,0.00
2022-11-19T02:55:35.265Z,0.00
2022-11-19T03:00:35.196Z,0.00
2022-11-19T03:05:35.143Z,0.00
2022-11-19T03:10:35.043Z,0.00
2022-11-19T03:15:35.015Z,0.00
2022-11-19T03:20:34.939Z,0.00
2022-11-19T03:25:34.847Z,0.00
2022-11-19T03:30:34.814Z,0.00
2022-11-19T03:35:34.744Z,0.00
2022-11-19T03:40:34.668Z,0.00
2022-11-19T03:45:34.604Z,0.00
2022-11-19T03:50:34.553Z,0.00
2022-11-19T03:55:34.470Z,0.00
2022-11-19T04:00:34.416Z,0.00
2022-11-19T04:05:34.353Z,0.00
2022-11-19T04:10:34.268Z,0.00
2022-11-19T04:15:34.209Z,0.00
2022-11-19T04:20:34.167Z,0.00
2022-11-19T04:25:34.050Z,0.00
2022-11-19T04:30:34.041Z,0.00
2022-11-19T04:35:33.945Z,0.00
2022-11-19T04:40:33.870Z,0.00
2022-11-19T04:45:33.820Z,0.00
2022-11-19T04:50:33.769Z,0.00
2022-11-19T04:55:33.652Z,0.00
2022-11-19T05:00:33.650Z,0.00
2022-11-19T05:05:33.583Z,0.00
2022-11-19T05:10:33.491Z,0.00
2022-11-19T05:15:47.922Z,0.00
2022-11-19T05:20:40.310Z,0.00
2022-11-19T05:25:40.277Z,0.00
2022-11-19T05:30:40.234Z,0.00
2022-11-19T05:35:40.161Z,0.00
2022-11-19T05:40:40.088Z,0.00
2022-11-19T05:45:40.020Z,0.00
2022-11-19T05:50:39.949Z,0.00
2022-11-19T05:55:39.888Z,0.00
2022-11-19T06:00:39.809Z,0.00
2022-11-19T06:05:40.689Z,0.00
2022-11-19T06:10:39.691Z,0.00
2022-11-19T06:15:39.652Z,0.00
2022-11-19T06:20:39.560Z,0.00
2022-11-19T06:25:39.491Z,0.00
2022-11-19T06:30:39.431Z,0.00
2022-11-19T06:35:39.372Z,4.00
2022-11-19T06:40:39.293Z,8.00
2022-11-19T06:45:39.246Z,12.00
2022-11-19T06:50:39.161Z,20.00
2022-11-19T06:55:39.111Z,32.00
2022-11-19T07:00:39.036Z,60.00
2022-11-19T07:05:39.003Z,88.00
2022-11-19T07:10:38.900Z,104.00
2022-11-19T07:15:38.863Z,140.00
2022-11-19T07:20:38.770Z,144.00
2022-11-19T07:25:38.741Z,220.00
2022-11-19T07:30:38.648Z,436.00
2022-11-19T07:35:38.603Z,492.00
2022-11-19T07:40:38.523Z,412.00
2022-11-19T07:45:38.514Z,420.00
2022-11-19T07:50:39.424Z,424.00
2022-11-19T07:55:38.454Z,368.00
2022-11-19T08:00:38.254Z,352.00
2022-11-19T08:05:38.229Z,384.00
2022-11-19T08:10:38.140Z,528.00
2022-11-19T08:15:38.093Z,472.00
2022-11-19T08:20:37.994Z,504.00
2022-11-19T08:25:37.959Z,556.00
2022-11-19T08:30:37.887Z,616.00
2022-11-19T08:35:37.834Z,788.00
2022-11-19T08:40:37.769Z,816.00
2022-11-19T08:45:37.699Z,644.00
2022-11-19T08:50:37.626Z,596.00
2022-11-19T08:55:37.659Z,496.00
2022-11-19T09:00:37.656Z,464.00
2022-11-19T09:05:37.434Z,444.00
2022-11-19T09:10:37.357Z,436.00
2022-11-19T09:15:37.315Z,428.00
2022-11-19T09:20:37.269Z,504.00
2022-11-19T09:25:37.882Z,644.00
2022-11-19T09:30:37.105Z,776.00
2022-11-19T09:35:37.081Z,816.00
2022-11-19T09:40:38.216Z,952.00
2022-11-19T09:45:36.958Z,952.00
2022-11-19T09:50:36.861Z,928.00
2022-11-19T09:55:36.808Z,956.00
2022-11-19T10:00:36.724Z,928.00
2022-11-19T10:05:36.680Z,908.00
2022-11-19T10:10:36.597Z,916.00
2022-11-19T10:15:38.046Z,892.00
2022-11-19T10:20:36.484Z,812.00
2022-11-19T10:25:36.402Z,856.00
2022-11-19T10:30:36.337Z,816.00
2022-11-19T10:35:36.293Z,868.00
2022-11-19T10:40:36.302Z,840.00
2022-11-19T10:45:36.167Z,1028.00
2022-11-19T10:50:36.096Z,848.00
2022-11-19T10:55:36.041Z,792.00
2022-11-19T11:00:36.010Z,696.00
2022-11-19T11:05:35.910Z,624.00
2022-11-19T11:10:35.839Z,640.00
2022-11-19T11:15:35.782Z,728.00
2022-11-19T11:20:35.713Z,812.00
2022-11-19T11:25:35.666Z,980.00
2022-11-19T11:33:28.756Z,920.00
2022-11-19T11:38:28.527Z,896.00
2022-11-19T11:43:28.487Z,1056.00
2022-11-19T11:48:28.395Z,1052.00
2022-11-19T11:53:28.407Z,952.00
2022-11-19T11:58:28.247Z,796.00
2022-11-19T12:03:28.223Z,748.00
2022-11-19T12:08:28.143Z,916.00
2022-11-19T12:13:28.067Z,996.00
2022-11-19T12:18:28.020Z,1020.00
2022-11-19T12:23:27.986Z,1004.00
2022-11-19T12:28:27.882Z,868.00
2022-11-19T12:33:27.881Z,772.00
2022-11-19T12:38:27.776Z,604.00
2022-11-19T12:43:27.731Z,592.00
2022-11-19T12:48:27.635Z,764.00
2022-11-19T12:53:27.590Z,824.00
2022-11-19T12:58:27.495Z,956.00
2022-11-19T13:03:27.457Z,896.00
2022-11-19T13:08:27.371Z,680.00
2022-11-19T13:13:27.304Z,664.00
2022-11-19T13:18:27.260Z,684.00
2022-11-19T13:23:27.204Z,636.00
2022-11-19T13:28:27.113Z,628.00
2022-11-19T13:33:27.060Z,708.00
2022-11-19T13:38:27.009Z,572.00
2022-11-19T13:43:34.153Z,488.00
2022-11-19T13:48:27.868Z,448.00
2022-11-19T13:53:26.799Z,424.00
2022-11-19T13:58:26.730Z,388.00
2022-11-19T14:03:26.704Z,452.00
2022-11-19T14:08:26.609Z,416.00
2022-11-19T14:13:26.568Z,400.00
2022-11-19T14:18:26.499Z,348.00
2022-11-19T14:23:26.428Z,304.00
2022-11-19T14:28:26.346Z,312.00
2022-11-19T14:33:26.299Z,324.00
2022-11-19T14:38:26.212Z,272.00
2022-11-19T14:43:26.163Z,216.00
2022-11-19T14:48:26.085Z,192.00
2022-11-19T14:53:26.048Z,176.00
2022-11-19T14:58:25.955Z,164.00
2022-11-19T15:03:25.937Z,140.00
2022-11-19T15:08:25.821Z,120.00
2022-11-19T15:13:25.788Z,88.00
2022-11-19T15:18:25.684Z,88.00
2022-11-19T15:23:25.645Z,60.00
2022-11-19T15:28:25.564Z,44.00
2022-11-19T15:33:25.499Z,36.00
2022-11-19T15:38:25.441Z,24.00
2022-11-19T15:43:25.447Z,20.00
2022-11-19T15:48:25.321Z,12.00
2022-11-19T15:53:25.260Z,8.00
2022-11-19T15:58:25.189Z,4.00
2022-11-19T16:03:25.144Z,4.00
2022-11-19T16:08:25.041Z,0.00
2022-11-19T16:13:25.025Z,0.00
2022-11-19T16:18:25.003Z,0.00
2022-11-19T16:23:24.859Z,0.00
2022-11-19T16:28:24.804Z,0.00
2022-11-19T16:33:24.766Z,0.00
2022-11-19T16:38:24.672Z,0.00
2022-11-19T16:43:24.613Z,0.00
2022-11-19T16:48:24.590Z,0.00
2022-11-19T16:53:24.489Z,0.00
2022-11-19T16:58:24.430Z,0.00
2022-11-19T17:03:24.375Z,0.00
2022-11-19T17:08:24.277Z,0.00
2022-11-19T17:13:24.244Z,0.00
2022-11-19T17:18:24.156Z,0.00
2022-11-19T17:23:24.085Z,0.00
2022-11-19T17:28:24.040Z,0.00
2022-11-19T17:33:23.980Z,0.00
2022-11-19T17:38:23.902Z,0.00
2022-11-19T17:43:23.865Z,0.00
2022-11-19T17:48:23.784Z,0.00
2022-11-19T17:53:25.108Z,0.00
2022-11-19T17:58:23.664Z,0.00
2022-11-19T18:03:23.596Z,0.00
2022-11-19T18:08:23.492Z,0.00
2022-11-19T18:13:23.463Z,0.00
2022-11-19T18:18:23.382Z,0.00
2022-11-19T18:23:23.316Z,0.00
2022-11-19T18:28:23.284Z,0.00
2022-11-19T18:33:23.219Z,0.00
2022-11-19T18:38:23.141Z,0.00
2022-11-19T18:43:23.109Z,0.00
2022-11-19T18:48:23.170Z,0.00
2022-11-19T18:53:23.178Z,0.00
2022-11-19T18:58:22.894Z,0.00
2022-11-19T19:03:22.818Z,0.00
2022-11-19T19:08:22.783Z,0.00
2022-11-19T19:13:22.701Z,0.00
2022-11-19T19:18:22.691Z,0.00
2022-11-19T19:23:22.621Z,0.00
2022-11-19T19:28:22.474Z,0.00
2022-11-19T19:33:22.468Z,0.00
2022-11-19T19:38:22.378Z,0.00
2022-11-19T19:43:22.333Z,0.00
2022-11-19T19:48:22.306Z,0.00
2022-11-19T19:53:22.178Z,0.00
2022-11-19T19:58:28.012Z,0.00
2022-11-19T20:03:23.088Z,0.00
2022-11-19T20:08:21.966Z,0.00
2022-11-19T20:13:21.925Z,0.00
2022-11-19T20:18:21.846Z,0.00
2022-11-19T20:23:21.801Z,0.00
2022-11-19T20:28:21.712Z,0.00
2022-11-19T20:33:21.689Z,0.00
2022-11-19T20:38:21.600Z,0.00
2022-11-19T20:43:21.592Z,0.00
2022-11-19T20:48:21.469Z,0.00
2022-11-19T20:53:21.457Z,0.00
2022-11-19T20:58:21.348Z,0.00
2022-11-19T21:03:21.265Z,0.00
2022-11-19T21:08:21.188Z,0.00
2022-11-19T21:13:21.175Z,0.00
2022-11-19T21:18:24.068Z,0.00
2022-11-19T21:23:21.074Z,0.00
2022-11-19T21:28:21.271Z,0.00
2022-11-19T21:33:20.878Z,0.00
2022-11-19T21:38:20.809Z,0.00
2022-11-19T21:43:20.818Z,0.00
2022-11-19T21:48:20.670Z,0.00
2022-11-19T21:53:20.695Z,0.00
2022-11-19T21:58:20.567Z,0.00
2022-11-19T22:03:20.512Z,0.00
2022-11-19T22:08:20.417Z,0.00
2022-11-19T22:13:20.344Z,0.00
2022-11-19T22:18:20.285Z,0.00
2022-11-19T22:23:24.283Z,0.00
2022-11-19T22:28:20.158Z,0.00
2022-11-19T22:33:20.108Z,0.00
2022-11-19T22:38:20.040Z,0.00
2022-11-19T22:43:22.777Z,0.00
2022-11-19T22:48:20.029Z,0.00
2022-11-19T22:53:19.852Z,0.00
2022-11-19T22:58:19.772Z,0.00
2022-11-19T23:03:19.711Z,0.00
2022-11-19T23:08:19.661Z,0.00
2022-11-19T23:13:19.651Z,0.00
2022-11-19T23:18:19.532Z,0.00
2022-11-19T23:23:19.442Z,0.00
2022-11-19T23:28:19.409Z,0.00
2022-11-19T23:33:19.330Z,0.00
2022-11-19T23:38:19.273Z,0.00
2022-11-19T23:43:19.193Z,0.00
2022-11-19T23:48:19.140Z,0.00
2022-11-19T23:53:19.045Z,0.00
2022-11-19T23:58:19.015Z,0.00
